Time;durP1;ratioP1;P1;durP2;ratioP2;P2;SDS_P1;SDS_P2;PMS_P1;PMS_P2;Temp;Humidity;BMP_temperature;BMP_pressure;BME280_temperature;BME280_humidity;BME280_pressure;Samples;Min_cycle;Max_cycle;Signal;HPM_P1;HPM_P2
2022/03/02 04:01:00;;;;;;;20.77;14.77;;;-3.00;99.90;;;;;;5649571;23;20270;-77
2022/03/02 04:03:25;;;;;;;19.87;15.50;;;-3.10;99.90;;;;;;4971149;28;20204;-77
2022/03/02 04:05:52;;;;;;;17.73;15.93;;;-3.10;99.90;;;;;;4973014;28;20184;-78
2022/03/02 04:08:18;;;;;;;23.83;16.43;;;-3.10;99.90;;;;;;4975670;28;20181;-78
2022/03/02 04:10:45;;;;;;;16.97;15.27;;;-3.10;99.90;;;;;;4969826;28;20202;-80
2022/03/02 04:13:12;;;;;;;24.03;17.20;;;-3.10;99.90;;;;;;4955865;29;20564;-80
2022/03/02 04:15:38;;;;;;;22.33;17.37;;;-3.20;99.90;;;;;;4953961;29;20181;-79
2022/03/02 04:18:06;;;;;;;18.17;16.20;;;-3.20;99.90;;;;;;4955860;28;20638;-80
2022/03/02 04:20:33;;;;;;;20.90;17.23;;;-3.30;99.90;;;;;;4955124;28;20721;-79
2022/03/02 04:22:59;;;;;;;17.00;15.20;;;-3.30;99.90;;;;;;4954641;28;20255;-79
2022/03/02 04:25:25;;;;;;;17.20;15.40;;;-3.30;99.90;;;;;;4954998;29;20268;-80
2022/03/02 04:27:52;;;;;;;18.37;16.20;;;-3.20;99.90;;;;;;4954773;29;20189;-79
2022/03/02 04:30:18;;;;;;;18.47;16.20;;;-3.20;99.90;;;;;;4956831;28;20178;-79
2022/03/02 04:32:44;;;;;;;18.00;15.70;;;-3.20;99.90;;;;;;4954781;29;20182;-79
2022/03/02 04:35:11;;;;;;;19.40;15.73;;;-3.20;99.90;;;;;;4945899;29;20190;-79
2022/03/02 04:37:38;;;;;;;19.97;16.90;;;-3.20;99.90;;;;;;4953757;28;20309;-79
2022/03/02 04:40:06;;;;;;;18.73;16.80;;;-3.30;99.90;;;;;;4954847;29;20197;-79
2022/03/02 04:42:32;;;;;;;17.07;15.47;;;-3.30;99.90;;;;;;4954354;28;20198;-79
2022/03/02 04:44:58;;;;;;;18.43;16.60;;;-3.20;99.90;;;;;;4956120;29;20178;-78
2022/03/02 04:47:24;;;;;;;30.13;18.43;;;-3.20;99.90;;;;;;4950705;29;20253;-78
2022/03/02 04:49:50;;;;;;;21.80;19.60;;;-3.10;99.90;;;;;;4953188;29;20190;-78
2022/03/02 04:52:16;;;;;;;20.13;18.13;;;-3.10;99.90;;;;;;4952591;29;20212;-78
2022/03/02 04:57:26;;;;;;;21.47;19.57;;;-3.10;99.90;;;;;;4956722;28;20249;-77
2022/03/02 04:59:51;;;;;;;24.47;21.70;;;-3.10;99.90;;;;;;4940091;29;20205;-77
2022/03/02 05:02:17;;;;;;;19.70;16.53;;;-3.30;99.90;;;;;;4939169;29;20229;-77
2022/03/02 05:04:43;;;;;;;20.13;15.60;;;-3.20;99.90;;;;;;4940510;29;20217;-77
2022/03/02 05:07:09;;;;;;;19.87;15.97;;;-3.30;99.90;;;;;;4944837;29;20206;-77
2022/03/02 05:09:35;;;;;;;19.27;14.40;;;-3.30;99.90;;;;;;4960918;29;20178;-77
2022/03/02 05:12:04;;;;;;;15.53;13.33;;;-3.40;99.90;;;;;;4975552;29;20204;-77
2022/03/02 05:14:30;;;;;;;18.37;13.57;;;-3.50;99.90;;;;;;4970807;29;20252;-77
2022/03/02 05:16:56;;;;;;;16.10;14.40;;;-3.60;99.90;;;;;;4953717;28;20208;-78
2022/03/02 05:19:22;;;;;;;18.93;15.33;;;-3.60;99.90;;;;;;4952705;28;20194;-77
2022/03/02 05:21:48;;;;;;;15.00;13.40;;;-3.60;99.90;;;;;;4945257;28;20209;-78
2022/03/02 05:24:14;;;;;;;16.77;14.20;;;-3.60;99.90;;;;;;4957773;28;20233;-79
2022/03/02 05:26:41;;;;;;;19.47;15.63;;;-3.60;99.90;;;;;;4958736;29;20568;-79
2022/03/02 05:29:07;;;;;;;18.07;15.70;;;-3.60;99.90;;;;;;4959059;28;20289;-79
2022/03/02 05:31:33;;;;;;;17.03;15.00;;;-3.60;99.90;;;;;;4959619;28;20225;-78
2022/03/02 05:33:59;;;;;;;19.07;15.00;;;-3.50;99.90;;;;;;4959686;29;20650;-78
2022/03/02 05:36:26;;;;;;;20.30;14.73;;;-3.50;99.90;;;;;;4961100;29;20249;-78
2022/03/02 05:38:53;;;;;;;18.90;14.47;;;-3.60;99.90;;;;;;4956626;29;20661;-78
2022/03/02 05:41:19;;;;;;;20.37;14.40;;;-3.60;99.90;;;;;;4956810;29;20205;-79
2022/03/02 05:43:46;;;;;;;17.17;15.10;;;-3.50;99.90;;;;;;4954271;29;20198;-77
2022/03/02 05:46:12;;;;;;;23.10;15.33;;;-3.60;99.90;;;;;;4956343;28;20538;-77
2022/03/02 05:48:38;;;;;;;17.27;13.93;;;-3.60;99.90;;;;;;4963218;28;20181;-77
2022/03/02 05:51:04;;;;;;;20.70;14.43;;;-3.60;99.90;;;;;;4960695;28;20213;-77
2022/03/02 05:53:31;;;;;;;16.30;13.73;;;-3.60;99.90;;;;;;4954752;29;20240;-77
2022/03/02 05:55:58;;;;;;;18.20;14.47;;;-3.50;99.90;;;;;;4955228;29;20185;-76
2022/03/02 05:58:25;;;;;;;17.13;14.27;;;-3.50;99.90;;;;;;4957194;28;20181;-79
2022/03/02 06:00:51;;;;;;;20.47;15.60;;;-3.60;99.90;;;;;;4954676;29;20224;-75
2022/03/02 06:03:17;;;;;;;18.90;15.10;;;-3.60;99.90;;;;;;4952400;28;20280;-76
2022/03/02 06:05:43;;;;;;;17.53;14.43;;;-3.50;99.90;;;;;;4936979;28;20606;-76
2022/03/02 06:08:10;;;;;;;21.20;13.73;;;-3.60;99.90;;;;;;4952610;28;20712;-75
2022/03/02 06:10:36;;;;;;;17.50;13.13;;;-3.50;99.90;;;;;;4954859;28;20201;-75
2022/03/02 06:13:02;;;;;;;19.63;14.67;;;-3.50;99.90;;;;;;4953944;29;20228;-76
2022/03/02 06:15:30;;;;;;;21.70;15.30;;;-3.50;99.90;;;;;;4934786;29;20239;-75
2022/03/02 06:18:00;;;;;;;17.63;14.13;;;-3.40;99.90;;;;;;4946629;28;20178;-76
2022/03/02 06:20:28;;;;;;;17.50;13.93;;;-3.40;99.90;;;;;;4952008;29;20209;-76
2022/03/02 06:22:54;;;;;;;15.37;13.70;;;-3.30;99.90;;;;;;4955075;28;20256;-76
2022/03/02 06:25:20;;;;;;;14.73;13.20;;;-3.30;99.90;;;;;;4954813;29;20217;-78
2022/03/02 06:27:46;;;;;;;19.23;15.97;;;-3.20;99.90;;;;;;4953045;29;20693;-76
2022/03/02 06:30:13;;;;;;;24.23;15.30;;;-3.20;99.90;;;;;;4954739;29;20252;-76
2022/03/02 06:32:39;;;;;;;32.33;19.47;;;-3.10;99.90;;;;;;4954655;28;20182;-76
2022/03/02 06:35:06;;;;;;;25.93;18.00;;;-3.00;99.90;;;;;;4953673;29;20185;-76
2022/03/02 06:37:33;;;;;;;22.30;16.80;;;-2.90;99.90;;;;;;4952913;29;20668;-76
2022/03/02 06:40:10;;;;;;;22.23;17.73;;;-2.90;99.90;;;;;;4954848;28;20650;-76
2022/03/02 06:43:08;;;;;;;22.70;17.00;;;-2.70;99.90;;;;;;4954632;28;20182;-76
2022/03/02 06:45:34;;;;;;;19.60;15.10;;;-2.50;99.90;;;;;;4954567;28;20181;-76
2022/03/02 06:48:13;;;;;;;20.10;17.13;;;-2.30;99.90;;;;;;4954038;29;20181;-76
2022/03/02 06:50:43;;;;;;;20.50;18.60;;;-2.00;99.90;;;;;;4954480;28;20198;-76
2022/03/02 06:53:13;;;;;;;25.37;22.73;;;-1.80;99.90;;;;;;4942755;28;20182;-76
2022/03/02 06:55:41;;;;;;;20.50;14.60;;;-1.50;99.90;;;;;;4934084;29;20183;-76
2022/03/02 06:58:10;;;;;;;22.73;16.70;;;-1.30;99.90;;;;;;4939174;28;20273;-75
2022/03/02 07:00:37;;;;;;;26.27;17.83;;;-1.20;99.90;;;;;;4946499;29;20214;-76
2022/03/02 07:03:09;;;;;;;32.83;19.80;;;-1.00;99.90;;;;;;4940602;28;20288;-76
2022/03/02 07:05:37;;;;;;;27.40;19.23;;;-0.90;99.90;;;;;;4954392;28;20186;-76
2022/03/02 07:08:05;;;;;;;26.43;18.37;;;-0.70;99.90;;;;;;4953073;28;20185;-76
2022/03/02 07:10:35;;;;;;;27.17;18.17;;;-0.50;99.90;;;;;;4951024;28;20215;-76
2022/03/02 07:13:03;;;;;;;23.47;15.67;;;-0.30;99.90;;;;;;4948583;28;20546;-77
2022/03/02 07:15:31;;;;;;;19.57;15.73;;;-0.10;99.90;;;;;;4935139;28;20186;-76
2022/03/02 07:18:03;;;;;;;19.63;14.27;;;0.00;99.90;;;;;;4935105;28;20643;-76
2022/03/02 07:20:29;;;;;;;27.63;16.30;;;0.10;99.90;;;;;;4952106;28;20561;-77
2022/03/02 07:22:57;;;;;;;19.47;14.93;;;0.20;99.90;;;;;;4953938;28;20205;-77
2022/03/02 07:25:37;;;;;;;17.83;15.00;;;0.20;99.90;;;;;;4954066;28;20204;-76
2022/03/02 07:28:03;;;;;;;19.33;16.00;;;0.20;99.90;;;;;;4952723;29;20186;-77
2022/03/02 07:30:29;;;;;;;19.30;15.57;;;0.30;99.90;;;;;;4953992;28;20505;-77
2022/03/02 07:33:03;;;;;;;18.43;16.33;;;0.40;99.90;;;;;;4952562;29;20216;-77
2022/03/02 07:35:36;;;;;;;22.17;16.63;;;0.50;99.90;;;;;;4956849;28;20204;-77
2022/03/02 07:38:04;;;;;;;19.83;17.33;;;0.50;99.90;;;;;;4970977;29;20225;-77
2022/03/02 07:40:30;;;;;;;21.93;15.10;;;0.60;99.90;;;;;;4959877;29;20192;-75
2022/03/02 07:42:55;;;;;;;16.90;13.43;;;0.80;99.90;;;;;;4953017;28;20201;-76
2022/03/02 07:45:21;;;;;;;18.47;14.17;;;0.80;99.90;;;;;;4954004;28;20658;-76
2022/03/02 07:47:47;;;;;;;17.37;14.00;;;0.90;99.90;;;;;;4953816;29;20188;-77
2022/03/02 07:50:14;;;;;;;17.53;13.70;;;1.10;99.90;;;;;;4953580;28;20273;-77
2022/03/02 07:52:46;;;;;;;22.37;16.90;;;1.10;99.90;;;;;;4953503;28;20177;-77
2022/03/02 07:55:14;;;;;;;34.90;20.93;;;1.20;99.90;;;;;;4953647;28;20188;-77
2022/03/02 07:57:40;;;;;;;29.10;20.73;;;1.20;99.90;;;;;;4952994;28;20229;-77
2022/03/02 08:00:09;;;;;;;25.77;18.07;;;1.30;99.90;;;;;;4952495;29;20197;-77
2022/03/02 08:02:37;;;;;;;24.20;17.13;;;1.40;99.90;;;;;;4951597;29;20756;-76
2022/03/02 08:05:05;;;;;;;27.73;18.83;;;1.50;99.90;;;;;;4953232;28;20665;-76
2022/03/02 08:07:30;;;;;;;24.13;16.13;;;1.60;99.90;;;;;;4953075;28;20189;-76
2022/03/02 08:09:57;;;;;;;19.70;15.50;;;1.70;99.90;;;;;;4953321;29;20248;-76
2022/03/02 08:12:24;;;;;;;16.23;14.13;;;1.80;99.90;;;;;;4952879;28;20296;-77
2022/03/02 08:14:50;;;;;;;18.03;14.93;;;1.80;99.90;;;;;;4953192;28;20658;-76
2022/03/02 08:17:17;;;;;;;18.43;14.30;;;1.90;99.90;;;;;;4952584;28;20229;-76
2022/03/02 08:19:43;;;;;;;16.80;14.00;;;1.90;99.90;;;;;;4953139;28;20191;-77
2022/03/02 08:22:13;;;;;;;15.57;13.30;;;1.90;99.90;;;;;;4952970;29;20198;-77
2022/03/02 08:24:44;;;;;;;16.97;14.37;;;2.00;99.90;;;;;;4953375;28;20218;-76
2022/03/02 08:27:14;;;;;;;18.13;14.17;;;2.10;99.90;;;;;;4951588;29;20190;-76
2022/03/02 08:29:40;;;;;;;17.53;13.73;;;2.30;99.90;;;;;;4952701;28;20186;-76
2022/03/02 08:32:07;;;;;;;17.20;13.13;;;2.40;99.90;;;;;;4951097;29;20288;-76
2022/03/02 08:34:34;;;;;;;21.07;15.37;;;2.60;99.90;;;;;;4952536;28;20560;-76
2022/03/02 08:37:03;;;;;;;20.53;15.50;;;2.70;99.90;;;;;;4944165;29;20556;-76
2022/03/02 08:39:29;;;;;;;22.63;16.93;;;2.90;99.90;;;;;;4933386;29;20548;-76
2022/03/02 08:41:55;;;;;;;15.80;13.63;;;3.10;99.90;;;;;;4932981;29;20220;-76
2022/03/02 08:44:22;;;;;;;17.03;13.73;;;3.20;99.90;;;;;;4941531;29;20642;-77
2022/03/02 08:46:48;;;;;;;15.67;13.77;;;3.50;99.90;;;;;;4950669;28;20181;-76
2022/03/02 08:49:16;;;;;;;16.97;14.10;;;3.50;99.90;;;;;;4951218;29;20182;-76
2022/03/02 08:51:42;;;;;;;18.70;13.53;;;3.70;99.90;;;;;;4951841;29;20198;-75
2022/03/02 08:54:12;;;;;;;16.77;14.13;;;3.90;99.90;;;;;;4952775;29;20189;-75
2022/03/02 08:56:40;;;;;;;18.67;14.57;;;4.40;99.90;;;;;;4951337;29;20605;-76
2022/03/02 08:59:08;;;;;;;18.50;13.47;;;4.70;99.90;;;;;;4950653;28;20642;-76
2022/03/02 09:01:40;;;;;;;16.67;12.77;;;4.90;99.90;;;;;;4952370;28;20225;-76
2022/03/02 09:04:06;;;;;;;17.57;13.07;;;5.10;99.90;;;;;;4951135;28;20252;-76
2022/03/02 09:06:35;;;;;;;28.10;14.17;;;5.40;99.90;;;;;;4952464;28;20178;-75
2022/03/02 09:09:02;;;;;;;16.40;13.10;;;5.80;99.90;;;;;;4951884;28;20178;-76
2022/03/02 09:11:28;;;;;;;15.70;13.37;;;6.10;99.90;;;;;;4952598;28;20205;-76
2022/03/02 09:13:55;;;;;;;17.77;11.73;;;6.60;99.90;;;;;;4951324;29;20782;-75
2022/03/02 09:16:21;;;;;;;14.73;13.23;;;7.00;99.30;;;;;;4951427;29;20276;-76
2022/03/02 09:18:47;;;;;;;14.23;12.80;;;7.10;98.90;;;;;;4951752;29;20257;-76
2022/03/02 09:21:15;;;;;;;14.00;12.53;;;7.40;95.70;;;;;;4936117;29;20218;-77
2022/03/02 09:23:42;;;;;;;14.10;12.67;;;7.50;96.60;;;;;;4936129;28;20282;-76
2022/03/02 09:26:11;;;;;;;13.33;11.80;;;7.70;96.30;;;;;;4952539;28;20554;-76
2022/03/02 09:28:40;;;;;;;15.90;11.53;;;8.00;93.40;;;;;;4952009;28;20333;-76
2022/03/02 09:31:08;;;;;;;13.40;11.40;;;8.40;93.70;;;;;;4951144;28;20198;-76
2022/03/02 09:33:35;;;;;;;12.60;11.40;;;9.20;90.90;;;;;;4951185;29;20209;-74
2022/03/02 09:36:07;;;;;;;17.57;11.30;;;9.80;86.70;;;;;;4952069;28;20189;-76
2022/03/02 09:38:34;;;;;;;12.57;11.03;;;10.40;77.10;;;;;;4950797;28;20249;-76
2022/03/02 09:41:05;;;;;;;13.10;11.70;;;10.40;73.30;;;;;;4951978;28;20393;-76
2022/03/02 09:43:34;;;;;;;13.13;11.83;;;10.60;72.80;;;;;;4953420;28;20241;-76
2022/03/02 09:46:05;;;;;;;13.30;11.43;;;10.90;71.90;;;;;;4956084;28;20591;-76
2022/03/02 09:48:35;;;;;;;14.87;12.53;;;11.20;68.60;;;;;;4955452;28;20194;-75
2022/03/02 09:51:07;;;;;;;13.53;11.33;;;11.30;66.40;;;;;;4955301;28;20202;-75
2022/03/02 09:53:35;;;;;;;13.73;12.20;;;11.80;63.40;;;;;;4955578;29;20725;-75
2022/03/02 09:56:04;;;;;;;15.10;11.37;;;11.60;61.80;;;;;;4955493;28;20185;-74
2022/03/02 09:58:30;;;;;;;16.60;10.90;;;11.20;62.70;;;;;;4955098;28;20237;-75
2022/03/02 10:00:59;;;;;;;12.73;11.30;;;10.90;63.30;;;;;;4963527;28;20233;-74
2022/03/02 10:03:33;;;;;;;12.37;11.03;;;10.70;64.80;;;;;;4965654;28;20279;-74
2022/03/02 10:06:04;;;;;;;13.47;10.93;;;10.70;65.00;;;;;;4955121;28;20192;-76
2022/03/02 10:08:34;;;;;;;12.03;10.77;;;10.50;64.10;;;;;;4952909;28;20197;-75
2022/03/02 10:11:03;;;;;;;12.30;11.00;;;10.70;65.00;;;;;;4952922;29;20214;-74
2022/03/02 10:13:30;;;;;;;12.50;10.97;;;11.20;63.50;;;;;;4954475;28;20189;-76
2022/03/02 10:15:57;;;;;;;13.43;10.70;;;11.30;61.20;;;;;;4933950;23;1189752;-75
2022/03/02 10:18:25;;;;;;;17.97;12.10;;;11.10;62.20;;;;;;4947766;29;20184;-73
2022/03/02 10:21:00;;;;;;;17.07;12.57;;;10.90;63.30;;;;;;4947084;29;20182;-75
2022/03/02 10:23:33;;;;;;;12.27;10.80;;;10.90;64.90;;;;;;4935152;29;20283;-73
2022/03/02 10:26:08;;;;;;;16.73;10.77;;;11.30;64.40;;;;;;4952680;28;20239;-72
2022/03/02 10:28:46;;;;;;;12.17;10.60;;;11.60;62.10;;;;;;4954263;29;20268;-73
2022/03/02 10:31:20;;;;;;;14.10;10.90;;;11.90;61.50;;;;;;4942947;29;20196;-73
2022/03/02 10:33:56;;;;;;;13.17;10.67;;;12.10;60.10;;;;;;4934974;29;20237;-73
2022/03/02 10:36:26;;;;;;;12.23;10.93;;;12.50;61.60;;;;;;4936830;29;20225;-73
2022/03/02 10:38:58;;;;;;;13.90;10.93;;;12.10;61.00;;;;;;4937346;29;20221;-73
2022/03/02 10:41:26;;;;;;;11.27;10.17;;;11.80;63.00;;;;;;4937024;29;20644;-73
2022/03/02 10:44:14;;;;;;;12.30;11.10;;;11.90;60.00;;;;;;4933128;29;20570;-75
2022/03/02 10:46:46;;;;;;;11.90;10.70;;;12.40;60.90;;;;;;4920623;29;20225;-74
2022/03/02 10:49:20;;;;;;;13.20;11.83;;;13.40;58.80;;;;;;4934406;29;20608;-74
2022/03/02 10:51:47;;;;;;;13.33;11.90;;;14.50;55.50;;;;;;4935773;29;20554;-73
2022/03/02 10:54:17;;;;;;;12.57;11.27;;;14.00;54.60;;;;;;4933903;29;20230;-71
2022/03/02 10:56:44;;;;;;;19.60;11.23;;;13.70;56.50;;;;;;4933927;29;20249;-71
2022/03/02 10:59:16;;;;;;;13.87;10.63;;;13.80;55.10;;;;;;4935058;29;20182;-71
2022/03/02 11:01:44;;;;;;;16.60;11.10;;;13.70;54.30;;;;;;4937108;29;20193;-72
2022/03/02 11:04:11;;;;;;;11.70;10.50;;;13.60;55.10;;;;;;4949627;29;20190;-72
2022/03/02 11:06:38;;;;;;;12.17;11.00;;;13.50;55.10;;;;;;4951677;29;20371;-73
2022/03/02 11:09:06;;;;;;;11.97;10.63;;;13.50;54.80;;;;;;4935780;29;20183;-73
2022/03/02 11:11:38;;;;;;;12.47;11.17;;;13.30;54.70;;;;;;4925846;29;20195;-73
2022/03/02 11:14:08;;;;;;;12.33;10.97;;;12.90;56.00;;;;;;4935190;29;20217;-73
2022/03/02 11:16:33;;;;;;;12.90;10.93;;;12.80;55.80;;;;;;4934851;29;20215;-74
2022/03/02 11:19:13;;;;;;;12.60;11.30;;;12.50;55.90;;;;;;4934603;29;20303;-73
2022/03/02 11:21:42;;;;;;;12.93;11.17;;;12.50;56.30;;;;;;4935166;29;20241;-73
2022/03/02 11:24:13;;;;;;;13.63;12.17;;;12.40;55.30;;;;;;4933956;29;20189;-72
2022/03/02 11:26:41;;;;;;;12.77;11.17;;;12.10;55.80;;;;;;4936697;28;20486;-71
2022/03/02 11:29:13;;;;;;;14.57;10.90;;;12.10;56.00;;;;;;4933162;29;20194;-71
2022/03/02 11:31:49;;;;;;;12.53;11.23;;;12.40;56.20;;;;;;4934933;29;20190;-72
2022/03/02 11:34:29;;;;;;;12.60;11.23;;;12.30;56.30;;;;;;4934381;29;20241;-71
2022/03/02 11:37:00;;;;;;;12.47;11.17;;;12.00;56.20;;;;;;4934072;29;20698;-71
2022/03/02 11:39:28;;;;;;;14.27;11.87;;;12.10;56.30;;;;;;4934776;29;20195;-71
2022/03/02 11:41:56;;;;;;;12.83;10.53;;;12.20;56.20;;;;;;4934561;29;20210;-74
2022/03/02 11:44:34;;;;;;;13.33;11.13;;;12.40;54.80;;;;;;4934282;29;20182;-71
2022/03/02 11:47:11;;;;;;;12.77;10.93;;;12.30;54.80;;;;;;4932729;29;20571;-72
2022/03/02 11:49:40;;;;;;;14.83;11.80;;;12.10;54.90;;;;;;4934514;29;20281;-71
2022/03/02 11:52:09;;;;;;;13.57;11.20;;;12.10;54.70;;;;;;4933087;29;20183;-72
2022/03/02 11:54:45;;;;;;;12.77;11.40;;;12.00;54.90;;;;;;4934311;29;20331;-71
2022/03/02 11:57:16;;;;;;;15.07;11.17;;;11.70;55.50;;;;;;4933915;29;20292;-70
2022/03/02 11:59:42;;;;;;;12.93;11.33;;;11.60;55.80;;;;;;4934068;29;20182;-70
2022/03/02 12:02:17;;;;;;;12.30;11.10;;;11.70;55.00;;;;;;4933780;29;20628;-72
2022/03/02 12:05:04;;;;;;;13.23;11.40;;;11.80;55.20;;;;;;4934353;29;20606;-71
2022/03/02 12:07:40;;;;;;;17.03;11.87;;;11.80;54.90;;;;;;4933459;29;20209;-72
2022/03/02 12:10:28;;;;;;;16.60;12.13;;;11.80;55.80;;;;;;4933987;29;20225;-71
2022/03/02 12:12:55;;;;;;;14.70;12.80;;;11.80;55.40;;;;;;4914669;29;20191;-72
2022/03/02 12:15:23;;;;;;;14.57;12.03;;;11.90;56.70;;;;;;4930336;29;20229;-72
2022/03/02 12:17:49;;;;;;;11.93;10.63;;;12.00;55.20;;;;;;4933705;29;20602;-72
2022/03/02 12:20:20;;;;;;;12.23;10.73;;;11.90;55.00;;;;;;4932769;29;20191;-72
2022/03/02 12:22:52;;;;;;;14.03;11.43;;;11.70;55.10;;;;;;4932154;29;20269;-72
2022/03/02 12:25:21;;;;;;;14.60;11.93;;;11.20;54.40;;;;;;4932606;29;20305;-72
2022/03/02 12:28:01;;;;;;;12.93;11.53;;;10.80;55.20;;;;;;4933138;29;20721;-72
2022/03/02 12:30:34;;;;;;;13.57;12.17;;;10.50;57.50;;;;;;4932034;29;20290;-72
2022/03/02 12:33:02;;;;;;;15.93;11.90;;;10.50;57.50;;;;;;4915050;29;20218;-72
2022/03/02 12:35:28;;;;;;;14.57;11.43;;;10.50;56.80;;;;;;4916784;29;20812;-73
2022/03/02 12:37:59;;;;;;;13.53;11.53;;;10.60;57.30;;;;;;4930512;29;20190;-72
2022/03/02 12:40:28;;;;;;;13.13;10.93;;;10.70;57.60;;;;;;4933874;29;20388;-72
2022/03/02 12:42:55;;;;;;;13.27;11.87;;;10.70;57.30;;;;;;4933199;29;20588;-71
2022/03/02 12:45:21;;;;;;;13.70;11.70;;;10.50;57.40;;;;;;4933957;29;20293;-72
2022/03/02 12:47:48;;;;;;;17.57;11.90;;;10.50;58.90;;;;;;4934646;29;20174;-72
2022/03/02 12:50:16;;;;;;;14.27;11.30;;;10.50;57.90;;;;;;4952195;29;20203;-71
2022/03/02 12:52:43;;;;;;;15.00;11.40;;;10.70;55.80;;;;;;4937587;29;20597;-72
2022/03/02 12:55:11;;;;;;;13.60;11.30;;;10.70;57.20;;;;;;4933921;29;20222;-71
2022/03/02 12:57:38;;;;;;;13.67;11.93;;;10.70;56.70;;;;;;4927578;29;20190;-72
2022/03/02 13:00:12;;;;;;;13.30;11.90;;;10.60;57.50;;;;;;4913392;29;20553;-71
2022/03/02 13:02:39;;;;;;;14.47;11.77;;;10.60;57.90;;;;;;4914541;29;20187;-72
2022/03/02 13:05:04;;;;;;;12.50;11.20;;;10.70;57.40;;;;;;4933174;29;20241;-72
2022/03/02 13:07:40;;;;;;;12.13;10.93;;;10.70;57.50;;;;;;4931299;29;20218;-71
2022/03/02 13:10:11;;;;;;;14.63;11.40;;;10.60;57.10;;;;;;4934201;29;20185;-72
2022/03/02 13:12:45;;;;;;;12.40;11.10;;;10.50;57.70;;;;;;4932792;29;20222;-71
2022/03/02 13:15:32;;;;;;;16.40;13.30;;;10.50;58.10;;;;;;4933118;29;20820;-72
2022/03/02 13:18:07;;;;;;;14.83;12.10;;;10.50;59.00;;;;;;4932977;29;20201;-72
2022/03/02 13:21:12;;;;;;;14.83;11.10;;;10.50;59.40;;;;;;4937011;29;20241;-72
2022/03/02 13:23:38;;;;;;;14.60;11.50;;;10.30;59.40;;;;;;4859480;29;20200;-72
2022/03/02 13:26:04;;;;;;;13.27;11.30;;;10.30;59.50;;;;;;4922422;29;20285;-71
2022/03/02 13:28:36;;;;;;;13.53;12.13;;;10.20;59.20;;;;;;4954258;29;20273;-71
2022/03/02 13:31:12;;;;;;;12.13;10.93;;;10.30;59.80;;;;;;4958142;28;20293;-72
2022/03/02 13:34:02;;;;;;;12.83;11.00;;;10.30;59.40;;;;;;4954923;29;20218;-72
2022/03/02 13:36:39;;;;;;;13.43;12.03;;;10.30;59.40;;;;;;4953944;28;20202;-71
2022/03/02 13:39:08;;;;;;;13.07;11.67;;;10.30;59.90;;;;;;4934957;29;20182;-71
2022/03/02 13:41:47;;;;;;;13.23;11.93;;;10.30;58.70;;;;;;4936820;29;20261;-72
2022/03/02 13:44:28;;;;;;;12.30;11.10;;;10.30;59.50;;;;;;4936614;29;20662;-73
2022/03/02 13:47:12;;;;;;;14.57;11.77;;;10.50;58.30;;;;;;4936287;29;20206;-71
2022/03/02 13:49:47;;;;;;;13.10;11.70;;;10.50;60.40;;;;;;4935074;29;20186;-72
2022/03/02 13:52:16;;;;;;;13.13;10.73;;;10.30;63.80;;;;;;4936445;29;20182;-72
2022/03/02 13:54:42;;;;;;;13.53;12.00;;;10.10;65.50;;;;;;4936334;29;20300;-72
2022/03/02 13:57:32;;;;;;;17.30;12.37;;;10.00;65.90;;;;;;4935792;29;20183;-71
2022/03/02 14:00:19;;;;;;;13.07;11.67;;;10.00;65.20;;;;;;4919780;29;20202;-72
2022/03/02 14:02:50;;;;;;;14.30;12.27;;;10.10;65.90;;;;;;4917094;29;20782;-72
2022/03/02 14:05:18;;;;;;;14.63;11.17;;;10.10;66.20;;;;;;4917181;29;20245;-72
2022/03/02 14:07:45;;;;;;;13.67;11.40;;;10.10;66.30;;;;;;4927693;29;20269;-72
2022/03/02 14:10:13;;;;;;;13.47;10.83;;;10.00;66.90;;;;;;4936856;29;20188;-72
2022/03/02 14:12:49;;;;;;;13.33;11.40;;;10.10;67.20;;;;;;4934937;29;20585;-72
2022/03/02 14:15:15;;;;;;;14.43;11.60;;;10.10;65.70;;;;;;4935699;29;20250;-72
2022/03/02 14:17:40;;;;;;;16.03;12.43;;;10.00;66.80;;;;;;4934191;29;20582;-72
2022/03/02 14:20:07;;;;;;;13.07;11.63;;;9.70;67.90;;;;;;4935956;29;20298;-72
2022/03/02 14:22:32;;;;;;;12.33;11.03;;;9.60;69.10;;;;;;4936305;29;20211;-72
2022/03/02 14:24:58;;;;;;;13.60;11.47;;;9.50;67.50;;;;;;4935707;29;20202;-72
2022/03/02 14:27:27;;;;;;;13.43;11.40;;;9.50;67.20;;;;;;4934035;29;20190;-72
2022/03/02 14:29:57;;;;;;;14.17;12.37;;;9.50;65.90;;;;;;4935283;29;20273;-72
2022/03/02 14:32:35;;;;;;;18.13;11.77;;;9.50;66.40;;;;;;4936147;29;20213;-72
2022/03/02 14:35:03;;;;;;;14.63;11.47;;;9.40;67.10;;;;;;4939858;29;20214;-72
2022/03/02 14:37:33;;;;;;;14.40;11.30;;;9.40;68.10;;;;;;4959548;29;20187;-72
2022/03/02 14:40:16;;;;;;;15.00;12.10;;;9.40;68.30;;;;;;4938639;29;20201;-71
2022/03/02 14:42:50;;;;;;;24.80;17.93;;;9.50;68.00;;;;;;4934869;29;20237;-71
2022/03/02 14:45:20;;;;;;;20.50;15.53;;;9.50;67.50;;;;;;4935536;29;20578;-71
2022/03/02 14:47:53;;;;;;;14.53;11.83;;;9.60;67.10;;;;;;4935029;29;20276;-71
2022/03/02 14:50:24;;;;;;;20.20;11.80;;;9.60;66.90;;;;;;4935579;29;20193;-72
2022/03/02 14:53:22;;;;;;;18.27;12.10;;;9.70;67.30;;;;;;4934400;29;20183;-72
2022/03/02 14:55:57;;;;;;;13.57;12.10;;;9.70;67.20;;;;;;4892963;29;20222;-71
2022/03/02 14:58:26;;;;;;;16.60;12.67;;;9.80;65.90;;;;;;4933689;29;20681;-71
2022/03/02 15:00:54;;;;;;;16.33;12.13;;;9.80;65.90;;;;;;4934147;29;20183;-72
2022/03/02 15:03:28;;;;;;;15.63;12.10;;;9.90;65.20;;;;;;4934057;29;20198;-72
2022/03/02 15:06:02;;;;;;;14.13;12.20;;;9.90;66.50;;;;;;4932891;29;20217;-72
2022/03/02 15:08:38;;;;;;;25.17;17.23;;;9.80;65.20;;;;;;4934428;29;20273;-71
2022/03/02 15:11:14;;;;;;;13.50;11.87;;;9.70;66.10;;;;;;4935155;29;20182;-72
2022/03/02 15:16:42;;;;;;;15.47;11.53;;;9.60;64.30;;;;;;4934406;29;20246;-72
2022/03/02 15:19:09;;;;;;;15.90;11.50;;;9.60;64.00;;;;;;4916904;29;20179;-72
2022/03/02 15:21:35;;;;;;;16.57;12.00;;;9.70;64.30;;;;;;4918125;29;20261;-72
2022/03/02 15:24:03;;;;;;;13.30;11.07;;;9.80;64.30;;;;;;4915819;29;20246;-73
2022/03/02 15:26:29;;;;;;;17.23;11.83;;;9.90;64.40;;;;;;4914333;29;20225;-72
2022/03/02 15:29:13;;;;;;;12.67;11.47;;;10.10;64.30;;;;;;4932057;29;20186;-72
2022/03/02 15:31:53;;;;;;;14.80;12.27;;;10.30;64.60;;;;;;4934479;29;20286;-72
2022/03/02 15:34:26;;;;;;;15.23;12.40;;;10.30;63.90;;;;;;4934978;29;20280;-72
2022/03/02 15:37:02;;;;;;;14.17;11.63;;;10.30;63.60;;;;;;4935533;29;20209;-71
2022/03/02 15:39:39;;;;;;;17.33;11.90;;;10.20;63.70;;;;;;4934750;29;20186;-72
2022/03/02 15:42:13;;;;;;;13.70;11.60;;;10.20;62.50;;;;;;4933889;29;20560;-72
2022/03/02 15:45:03;;;;;;;11.97;10.80;;;10.10;63.00;;;;;;4934334;29;20654;-72
2022/03/02 15:47:31;;;;;;;16.07;11.83;;;10.00;62.70;;;;;;4933932;29;20190;-72
2022/03/02 15:49:57;;;;;;;12.93;11.53;;;10.00;63.10;;;;;;4934323;29;20216;-73
2022/03/02 15:52:39;;;;;;;13.53;11.90;;;9.90;63.70;;;;;;4932981;29;20686;-73
2022/03/02 15:55:05;;;;;;;13.20;11.80;;;9.90;63.80;;;;;;4932985;29;20644;-72
2022/03/02 15:57:31;;;;;;;14.43;11.33;;;9.80;63.00;;;;;;4933913;29;20269;-73
2022/03/02 16:00:09;;;;;;;15.37;12.67;;;9.70;64.80;;;;;;4934597;29;20308;-74
2022/03/02 16:02:36;;;;;;;17.03;12.77;;;9.70;66.80;;;;;;4915306;29;20225;-73
2022/03/02 16:05:05;;;;;;;16.70;13.37;;;9.70;68.70;;;;;;4915282;29;20679;-73
2022/03/02 16:07:31;;;;;;;20.07;13.97;;;9.50;68.30;;;;;;4914801;29;20305;-73
2022/03/02 16:09:59;;;;;;;16.10;11.93;;;9.40;70.20;;;;;;4934049;28;20305;-74
2022/03/02 16:12:57;;;;;;;24.33;17.60;;;9.50;65.70;;;;;;4915673;29;20191;-73
2022/03/02 16:15:42;;;;;;;16.70;13.13;;;9.40;65.50;;;;;;4904747;23;20254;-74
2022/03/02 16:18:10;;;;;;;14.90;13.30;;;9.30;65.70;;;;;;4923104;29;20721;-74
2022/03/02 16:20:37;;;;;;;18.17;14.33;;;9.20;66.50;;;;;;4919462;29;20187;-74
2022/03/02 16:23:14;;;;;;;16.37;13.43;;;9.10;67.40;;;;;;4933988;29;20186;-74
2022/03/02 16:25:47;;;;;;;14.30;12.20;;;9.00;67.20;;;;;;4929658;28;20573;-74
2022/03/02 16:28:14;;;;;;;21.13;14.20;;;9.00;67.80;;;;;;4913235;29;20723;-73
2022/03/02 16:30:41;;;;;;;16.13;13.50;;;8.90;68.00;;;;;;4913986;29;20178;-75
2022/03/02 16:33:08;;;;;;;19.10;12.87;;;8.80;67.30;;;;;;4914075;29;20647;-73
2022/03/02 16:35:35;;;;;;;17.43;14.43;;;8.80;67.70;;;;;;4904980;29;20205;-74
2022/03/02 16:38:02;;;;;;;20.23;15.50;;;8.70;67.90;;;;;;4894195;29;20188;-74
2022/03/02 16:40:32;;;;;;;19.83;14.53;;;8.70;69.20;;;;;;4896347;29;20184;-74
2022/03/02 16:42:58;;;;;;;14.87;12.97;;;8.60;68.50;;;;;;4912393;29;20191;-74
2022/03/02 16:45:26;;;;;;;19.50;13.47;;;8.60;68.40;;;;;;4913159;29;20660;-74
2022/03/02 16:48:03;;;;;;;15.57;12.40;;;8.50;68.60;;;;;;4914395;29;20192;-74
2022/03/02 16:50:30;;;;;;;17.70;13.37;;;8.50;69.40;;;;;;4914744;29;20187;-74